createdAt,value
2019-02-17T05:02:16.234Z,0.00
2019-02-17T05:02:43.994Z,0.00
2019-02-17T05:03:53.135Z,0.00
2019-02-17T05:04:46.615Z,0.00
2019-02-17T05:05:47.873Z,0.00
2019-02-17T05:06:48.225Z,0.00
2019-02-17T05:07:48.073Z,0.00
2019-02-17T05:08:46.592Z,0.00
2019-02-17T05:09:46.845Z,0.00
2019-02-17T05:10:49.706Z,0.00
2019-02-17T05:11:47.834Z,0.00
2019-02-17T05:12:47.386Z,0.00
2019-02-17T05:13:47.401Z,0.00
2019-02-17T05:14:47.194Z,0.00
2019-02-17T05:15:47.395Z,0.00
2019-02-17T05:16:47.469Z,0.00
2019-02-17T05:17:48.237Z,0.00
2019-02-17T05:18:49.288Z,0.00
2019-02-17T05:19:48.889Z,0.00
2019-02-17T05:20:49.858Z,0.00
2019-02-17T05:21:48.975Z,0.00
2019-02-17T05:22:50.180Z,0.00
2019-02-17T05:23:50.278Z,0.00
2019-02-17T05:24:50.001Z,0.00
2019-02-17T05:25:49.549Z,0.00
2019-02-17T05:26:49.609Z,0.00
2019-02-17T05:27:50.642Z,0.00
2019-02-17T05:28:50.531Z,0.00
2019-02-17T05:29:50.058Z,0.00
2019-02-17T05:30:53.219Z,0.00
2019-02-17T05:31:52.742Z,0.00
2019-02-17T05:32:52.098Z,0.00
2019-02-17T05:33:52.540Z,0.00
2019-02-17T05:34:51.312Z,0.00
2019-02-17T05:35:53.611Z,0.00
2019-02-17T05:36:53.930Z,0.00
2019-02-17T05:37:52.942Z,0.00
2019-02-17T05:38:53.710Z,0.00
2019-02-17T05:39:53.502Z,0.00
2019-02-17T05:40:55.075Z,0.00
2019-02-17T05:41:52.385Z,0.00
2019-02-17T05:42:55.731Z,0.00
2019-02-17T05:43:53.763Z,0.00
2019-02-17T05:44:54.831Z,0.00
2019-02-17T05:45:52.783Z,0.00
2019-02-17T05:46:53.862Z,0.00
2019-02-17T05:47:55.356Z,0.00
2019-02-17T05:48:55.465Z,0.00
2019-02-17T05:49:55.090Z,0.00
2019-02-17T05:50:53.867Z,0.00
2019-02-17T05:51:54.266Z,0.00
2019-02-17T05:52:54.455Z,0.00
2019-02-17T05:53:54.764Z,0.00
2019-02-17T05:54:55.982Z,0.00
2019-02-17T05:55:54.281Z,4.00
2019-02-17T05:56:56.274Z,4.00
2019-02-17T05:57:56.784Z,0.00
2019-02-17T05:58:55.368Z,4.00
2019-02-17T05:59:56.338Z,0.00
2019-02-17T06:01:03.273Z,4.00
2019-02-17T06:01:57.805Z,4.00
2019-02-17T06:02:55.884Z,4.00
2019-02-17T06:03:58.006Z,4.00
2019-02-17T06:05:12.511Z,4.00
2019-02-17T06:05:58.572Z,8.00
2019-02-17T06:06:58.340Z,8.00
2019-02-17T06:07:57.543Z,12.00
2019-02-17T06:08:57.350Z,12.00
2019-02-17T06:09:57.984Z,16.00
2019-02-17T06:10:58.583Z,20.00
2019-02-17T06:12:00.408Z,24.00
2019-02-17T06:12:58.308Z,28.00
2019-02-17T06:13:58.815Z,32.00
2019-02-17T06:14:58.669Z,40.00
2019-02-17T06:15:59.084Z,48.00
2019-02-17T06:16:58.240Z,60.00
2019-02-17T06:17:59.726Z,68.00
2019-02-17T06:19:00.546Z,80.00
2019-02-17T06:20:00.319Z,92.00
2019-02-17T06:20:59.690Z,104.00
2019-02-17T06:21:59.789Z,120.00
2019-02-17T06:23:01.180Z,136.00
2019-02-17T06:24:01.372Z,156.00
2019-02-17T06:25:00.281Z,172.00
2019-02-17T06:26:01.631Z,192.00
2019-02-17T06:27:00.972Z,208.00
2019-02-17T06:28:00.874Z,228.00
2019-02-17T06:29:01.261Z,252.00
2019-02-17T06:30:01.825Z,272.00
2019-02-17T06:31:01.853Z,296.00
2019-02-17T06:32:05.424Z,320.00
2019-02-17T06:33:02.434Z,348.00
2019-02-17T06:34:00.314Z,376.00
2019-02-17T06:35:04.620Z,396.00
2019-02-17T06:36:00.659Z,440.00
2019-02-17T06:57:58.510Z,1448.00
2019-02-17T06:59:10.707Z,1500.00
2019-02-17T07:00:29.142Z,1528.00
2019-02-17T07:01:02.288Z,1552.00
2019-02-17T07:03:43.585Z,1664.00
2019-02-17T07:07:29.106Z,1888.00
2019-02-17T07:08:30.487Z,1916.00
2019-02-17T07:09:46.739Z,1924.00
2019-02-17T07:10:39.842Z,1944.00
2019-02-17T07:11:53.638Z,1968.00
2019-02-17T07:13:03.492Z,1972.00
2019-02-17T07:15:53.132Z,2120.00
2019-02-17T07:17:10.371Z,2140.00
2019-02-17T07:17:51.369Z,2148.00
2019-02-17T07:18:50.211Z,2180.00
2019-02-17T07:21:30.516Z,2392.00
2019-02-17T07:22:30.009Z,2484.00
2019-02-17T07:23:30.269Z,2576.00
2019-02-17T07:24:29.515Z,2660.00
2019-02-17T07:25:30.342Z,2724.00
2019-02-17T07:26:29.501Z,2784.00
2019-02-17T07:27:30.602Z,2828.00
2019-02-17T07:28:30.630Z,2888.00
2019-02-17T07:29:33.174Z,2984.00
2019-02-17T07:33:34.590Z,3496.00
2019-02-17T07:34:21.785Z,3648.00
2019-02-17T07:39:52.077Z,4060.00
2019-02-17T07:41:13.244Z,4128.00
2019-02-17T07:41:51.718Z,4188.00
2019-02-17T07:45:29.257Z,5572.00
2019-02-17T07:49:14.321Z,7656.00
2019-02-17T07:50:01.182Z,7740.00
2019-02-17T07:50:52.178Z,7716.00
2019-02-17T07:54:42.117Z,8364.00
2019-02-17T07:55:39.442Z,8188.00
2019-02-17T07:56:39.159Z,8400.00
2019-02-17T07:57:39.961Z,8700.00
2019-02-17T07:58:39.905Z,8936.00
2019-02-17T07:59:43.681Z,9084.00
2019-02-17T08:00:39.723Z,9252.00
2019-02-17T08:01:49.446Z,9320.00
2019-02-17T08:02:57.681Z,9208.00
2019-02-17T08:03:43.377Z,9148.00
2019-02-17T08:04:42.509Z,9180.00
2019-02-17T08:05:42.493Z,9244.00
2019-02-17T08:06:44.679Z,9472.00
2019-02-17T08:07:50.743Z,9564.00
2019-02-17T08:08:43.819Z,9672.00
2019-02-17T08:09:44.975Z,9596.00
2019-02-17T08:10:42.977Z,9680.00
2019-02-17T08:11:45.834Z,9520.00
2019-02-17T08:12:48.804Z,9388.00
2019-02-17T08:13:43.715Z,9172.00
2019-02-17T08:14:46.219Z,8952.00
2019-02-17T08:15:45.705Z,8444.00
2019-02-17T08:16:49.231Z,8068.00
2019-02-17T08:17:45.579Z,7888.00
2019-02-17T08:18:45.813Z,7960.00
2019-02-17T08:19:45.468Z,7948.00
2019-02-17T08:20:45.831Z,8056.00
2019-02-17T08:21:46.889Z,8088.00
2019-02-17T08:22:48.106Z,8184.00
2019-02-17T08:23:48.865Z,8288.00
2019-02-17T08:24:49.629Z,8392.00
2019-02-17T08:25:48.071Z,8428.00
2019-02-17T08:26:48.532Z,8320.00
2019-02-17T08:27:48.683Z,8324.00
2019-02-17T08:28:49.263Z,8184.00
2019-02-17T08:29:53.117Z,8160.00
2019-02-17T08:30:52.107Z,8408.00
2019-02-17T08:31:55.841Z,8472.00
2019-02-17T08:32:51.173Z,8448.00
2019-02-17T08:33:53.861Z,8448.00
2019-02-17T08:34:49.727Z,8564.00
2019-02-17T08:35:51.257Z,8748.00
2019-02-17T08:36:49.048Z,8808.00
2019-02-17T08:37:49.937Z,8784.00
2019-02-17T08:38:50.554Z,8940.00
2019-02-17T08:39:49.210Z,8956.00
2019-02-17T08:40:49.840Z,8984.00
2019-02-17T08:41:50.336Z,9096.00
2019-02-17T08:42:49.209Z,9204.00
2019-02-17T08:43:50.214Z,9400.00
2019-02-17T08:44:49.934Z,9500.00
2019-02-17T08:45:49.624Z,9480.00
2019-02-17T08:46:51.296Z,9404.00
2019-02-17T08:47:50.113Z,9212.00
2019-02-17T08:48:51.192Z,8976.00
2019-02-17T08:49:50.449Z,8648.00
2019-02-17T08:50:50.805Z,8644.00
2019-02-17T08:51:50.640Z,8804.00
2019-02-17T08:52:52.101Z,8876.00
2019-02-17T08:53:51.432Z,8988.00
2019-02-17T08:54:51.574Z,9048.00
2019-02-17T08:55:52.589Z,9488.00
2019-02-17T08:56:52.025Z,9584.00
2019-02-17T08:57:52.810Z,9728.00
2019-02-17T08:58:54.461Z,9440.00
2019-02-17T08:59:53.537Z,10472.00
2019-02-17T09:15:29.800Z,13612.00
2019-02-17T09:16:31.735Z,13720.00
2019-02-17T09:17:31.555Z,14120.00
2019-02-17T09:18:31.643Z,14468.00
2019-02-17T09:19:31.794Z,14432.00
2019-02-17T09:20:32.019Z,14808.00
2019-02-17T09:21:32.176Z,15012.00
2019-02-17T09:22:32.426Z,14828.00
2019-02-17T09:23:32.630Z,15172.00
2019-02-17T09:24:32.822Z,15712.00
2019-02-17T09:25:32.964Z,16128.00
2019-02-17T09:26:33.111Z,16384.00
2019-02-17T09:27:33.278Z,16128.00
2019-02-17T10:10:18.912Z,14668.00
2019-02-17T10:11:19.233Z,14724.00
2019-02-17T10:12:19.203Z,14840.00
2019-02-17T10:13:19.439Z,15000.00
2019-02-17T10:14:19.637Z,15088.00
2019-02-17T10:15:19.800Z,15084.00
2019-02-17T10:16:21.141Z,15020.00
2019-02-17T10:17:21.288Z,15204.00
2019-02-17T10:18:21.543Z,15436.00
2019-02-17T10:19:21.713Z,15696.00
2019-02-17T10:20:21.831Z,16056.00
2019-02-17T10:21:22.016Z,16236.00
2019-02-17T10:22:22.486Z,16768.00
2019-02-17T10:23:23.260Z,17344.00
2019-02-17T10:24:23.477Z,18080.00
2019-02-17T10:25:23.019Z,18208.00
2019-02-17T10:26:23.891Z,19456.00
2019-02-17T10:27:27.287Z,20064.00
2019-02-17T10:28:23.687Z,20320.00
2019-02-17T10:29:24.303Z,20704.00
2019-02-17T10:30:25.964Z,21600.00
2019-02-17T10:31:24.329Z,20864.00
2019-02-17T10:32:24.985Z,21568.00
2019-02-17T10:33:25.060Z,25760.00
2019-02-17T10:34:25.773Z,26688.00
2019-02-17T10:35:25.249Z,28160.00
2019-02-17T10:36:26.138Z,26048.00
2019-02-17T10:37:25.243Z,25312.00
2019-02-17T10:38:27.159Z,23136.00
2019-02-17T10:39:26.614Z,18144.00
2019-02-17T10:40:26.854Z,13548.00
2019-02-17T10:41:26.314Z,10828.00
2019-02-17T10:42:28.863Z,10300.00
2019-02-17T10:43:28.467Z,10240.00
2019-02-17T10:44:26.770Z,10140.00
2019-02-17T10:45:36.135Z,10060.00
2019-02-17T10:46:28.260Z,9864.00
2019-02-17T10:47:27.133Z,9808.00
2019-02-17T10:48:29.363Z,9748.00
2019-02-17T10:49:27.281Z,9732.00
2019-02-17T10:50:27.668Z,9704.00
2019-02-17T10:51:28.325Z,9604.00
2019-02-17T10:52:31.272Z,9508.00
2019-02-17T10:53:30.085Z,9524.00
2019-02-17T10:54:29.911Z,9584.00
2019-02-17T10:55:29.892Z,9780.00
2019-02-17T10:56:29.209Z,9812.00
2019-02-17T10:57:29.220Z,9996.00
2019-02-17T10:58:29.145Z,10276.00
2019-02-17T10:59:40.981Z,11196.00
2019-02-17T11:30:34.583Z,13440.00
2019-02-17T11:31:36.808Z,13716.00
2019-02-17T11:32:36.744Z,14036.00
2019-02-17T11:33:36.289Z,14172.00
2019-02-17T11:34:36.497Z,14580.00
2019-02-17T11:35:36.672Z,14684.00
2019-02-17T11:36:36.942Z,14984.00
2019-02-17T11:37:37.009Z,14724.00
2019-02-17T11:38:37.279Z,13920.00
2019-02-17T11:39:37.425Z,13944.00
2019-02-17T11:40:37.628Z,14488.00
2019-02-17T11:41:37.787Z,15220.00
2019-02-17T11:42:38.003Z,15148.00
2019-02-17T11:43:38.178Z,14848.00
2019-02-17T11:44:38.337Z,15032.00
2019-02-17T11:45:38.518Z,15120.00
2019-02-17T11:46:38.731Z,15236.00
2019-02-17T11:47:38.832Z,15296.00
2019-02-17T11:48:39.060Z,15256.00
2019-02-17T11:49:39.251Z,15320.00
2019-02-17T11:50:39.399Z,15572.00
2019-02-17T11:51:39.542Z,15492.00
2019-02-17T11:52:39.721Z,16064.00
2019-02-17T11:53:39.863Z,16032.00
2019-02-17T11:54:40.795Z,14440.00
2019-02-17T11:55:40.161Z,14648.00
2019-02-17T11:56:40.394Z,14196.00
2019-02-17T11:57:40.560Z,14780.00
2019-02-17T11:58:40.677Z,14984.00
2019-02-17T11:59:40.950Z,15016.00
2019-02-17T12:00:40.990Z,15392.00
2019-02-17T12:01:41.150Z,15864.00
2019-02-17T12:02:41.271Z,16256.00
2019-02-17T12:03:41.389Z,16288.00
2019-02-17T12:04:42.625Z,16416.00
2019-02-17T12:05:41.856Z,16416.00
2019-02-17T12:06:42.003Z,16416.00
2019-02-17T12:07:42.175Z,16832.00
2019-02-17T12:08:42.445Z,16128.00
2019-02-17T12:09:42.680Z,15676.00
2019-02-17T12:10:42.913Z,16352.00
2019-02-17T12:11:43.051Z,16384.00
2019-02-17T12:12:43.231Z,16512.00
2019-02-17T12:13:43.371Z,16256.00
2019-02-17T12:14:43.413Z,16192.00
2019-02-17T12:15:43.602Z,16544.00
2019-02-17T12:16:43.742Z,16224.00
2019-02-17T12:17:43.937Z,15028.00
2019-02-17T12:18:44.205Z,15756.00
2019-02-17T12:19:44.354Z,15812.00
2019-02-17T12:20:44.552Z,16064.00
2019-02-17T12:21:44.676Z,16288.00
2019-02-17T12:22:44.995Z,16352.00
2019-02-17T12:23:45.174Z,16480.00
2019-02-17T12:24:45.234Z,16256.00
2019-02-17T12:25:45.533Z,16160.00
2019-02-17T12:26:45.819Z,16256.00
2019-02-17T12:27:45.918Z,15720.00
2019-02-17T12:28:46.167Z,15644.00
2019-02-17T12:29:46.245Z,15748.00
2019-02-17T12:30:46.450Z,16352.00
2019-02-17T12:31:46.643Z,16192.00
2019-02-17T12:32:46.801Z,15796.00
2019-02-17T12:33:47.000Z,15580.00
2019-02-17T12:34:47.279Z,15588.00
2019-02-17T12:35:47.360Z,15968.00
2019-02-17T12:36:47.600Z,15644.00
2019-02-17T12:37:48.076Z,15692.00
2019-02-17T12:38:47.856Z,16256.00
2019-02-17T12:39:48.086Z,16608.00
2019-02-17T12:40:48.221Z,18560.00
2019-02-17T12:41:48.360Z,19968.00
2019-02-17T12:42:48.543Z,20192.00
2019-02-17T12:43:49.002Z,6044.00
2019-02-17T12:44:50.209Z,5764.00
2019-02-17T12:45:50.864Z,5740.00
2019-02-17T13:12:41.890Z,5936.00
2019-02-17T13:13:28.993Z,22176.00
2019-02-17T13:14:27.745Z,22272.00
2019-02-17T13:15:27.471Z,7764.00
2019-02-17T13:16:27.157Z,21248.00
2019-02-17T13:17:27.883Z,8000.00
2019-02-17T13:18:27.300Z,23168.00
2019-02-17T13:19:27.866Z,23776.00
2019-02-17T13:20:28.121Z,27616.00
2019-02-17T13:21:52.494Z,22112.00
2019-02-17T13:22:52.715Z,22880.00
2019-02-17T13:23:52.839Z,23296.00
2019-02-17T13:24:53.047Z,23200.00
2019-02-17T13:25:54.344Z,22656.00
2019-02-17T13:26:54.520Z,21888.00
2019-02-17T13:27:54.688Z,20544.00
2019-02-17T13:28:54.898Z,22336.00
2019-02-17T13:29:55.057Z,23616.00
2019-02-17T13:30:55.246Z,27840.00
2019-02-17T13:31:55.448Z,33504.00
2019-02-17T13:32:56.658Z,38720.00
2019-02-17T13:33:55.826Z,36768.00
2019-02-17T13:34:56.034Z,30144.00
2019-02-17T13:35:56.252Z,22592.00
2019-02-17T13:36:56.470Z,17248.00
2019-02-17T13:37:56.686Z,13532.00
2019-02-17T13:38:56.872Z,12360.00
2019-02-17T13:39:57.094Z,11808.00
2019-02-17T13:40:57.297Z,11532.00
2019-02-17T13:41:57.499Z,10976.00
2019-02-17T13:42:57.729Z,10404.00
2019-02-17T13:43:57.889Z,10016.00
2019-02-17T13:44:58.098Z,9948.00
2019-02-17T13:45:58.296Z,10212.00
2019-02-17T13:46:58.467Z,10240.00
2019-02-17T13:47:58.639Z,10396.00
2019-02-17T13:48:58.865Z,10236.00
2019-02-17T13:49:59.099Z,9836.00
2019-02-17T13:50:59.315Z,10296.00
2019-02-17T13:51:59.510Z,10216.00
2019-02-17T13:52:59.715Z,10228.00
2019-02-17T13:53:59.913Z,10224.00
2019-02-17T13:55:00.136Z,10072.00
2019-02-17T13:56:00.252Z,10024.00
2019-02-17T13:57:00.437Z,9904.00
2019-02-17T13:58:01.237Z,9592.00
2019-02-17T13:59:00.777Z,9392.00
2019-02-17T14:00:00.983Z,9012.00
2019-02-17T14:01:01.172Z,8996.00
2019-02-17T14:02:01.374Z,8856.00
2019-02-17T14:03:01.560Z,8916.00
2019-02-17T14:04:01.749Z,8976.00
